Time;durP1;ratioP1;P1;durP2;ratioP2;P2;SDS_P1;SDS_P2;PMS_P1;PMS_P2;Temp;Humidity;BMP_temperature;BMP_pressure;BME280_temperature;BME280_humidity;BME280_pressure;Samples;Min_cycle;Max_cycle;Signal;HPM_P1;HPM_P2
2022/03/08 00:02:20;;;;;;;14.53;11.73;;;2.50;50.20;;;;;;5054642;28;20179;-57
2022/03/08 00:04:46;;;;;;;14.67;12.80;;;2.50;50.60;;;;;;5054795;28;20563;-55
2022/03/08 00:07:12;;;;;;;16.07;13.47;;;2.60;50.40;;;;;;5054422;28;20171;-54
2022/03/08 00:09:38;;;;;;;14.70;12.10;;;2.60;50.40;;;;;;5054666;28;20209;-56
2022/03/08 00:12:04;;;;;;;16.20;13.20;;;2.50;50.30;;;;;;5054695;28;20278;-56
2022/03/08 00:14:29;;;;;;;15.10;12.80;;;2.50;50.50;;;;;;5054429;28;20194;-55
2022/03/08 00:16:56;;;;;;;15.33;12.47;;;2.50;50.90;;;;;;5054182;28;20179;-54
2022/03/08 00:19:21;;;;;;;15.00;12.47;;;2.60;50.80;;;;;;5053143;28;20206;-55
2022/03/08 00:21:47;;;;;;;16.83;12.77;;;2.70;50.80;;;;;;5054607;28;20406;-57
2022/03/08 00:24:13;;;;;;;14.70;12.27;;;2.70;50.50;;;;;;5054829;28;20182;-56
2022/03/08 00:26:39;;;;;;;15.77;12.30;;;2.70;50.70;;;;;;5054022;28;20188;-56
2022/03/08 00:29:04;;;;;;;15.40;12.77;;;2.80;50.80;;;;;;5054299;28;20185;-57
2022/03/08 00:31:30;;;;;;;17.43;12.67;;;2.80;50.90;;;;;;5054299;28;20409;-57
2022/03/08 00:33:56;;;;;;;15.87;12.97;;;2.80;50.90;;;;;;5054581;28;20528;-56
2022/03/08 00:36:22;;;;;;;15.27;12.50;;;2.80;51.30;;;;;;5054483;28;20438;-54
2022/03/08 00:38:48;;;;;;;15.43;12.50;;;2.90;51.00;;;;;;5054740;28;20548;-56
2022/03/08 00:41:13;;;;;;;14.93;12.80;;;2.80;50.90;;;;;;5054410;28;20163;-55
2022/03/08 00:43:39;;;;;;;14.87;12.40;;;2.80;50.90;;;;;;5052947;28;20194;-53
2022/03/08 00:46:05;;;;;;;15.87;13.90;;;2.80;51.50;;;;;;5053579;28;20244;-57
2022/03/08 00:48:30;;;;;;;15.33;12.63;;;2.70;52.20;;;;;;5051996;28;20539;-52
2022/03/08 00:50:56;;;;;;;15.37;13.03;;;2.70;52.30;;;;;;5053556;28;20179;-58
2022/03/08 00:53:21;;;;;;;17.03;13.47;;;2.60;53.10;;;;;;5053740;28;20188;-54
2022/03/08 00:55:47;;;;;;;17.50;13.93;;;2.50;54.40;;;;;;5053313;28;20191;-53
2022/03/08 00:58:13;;;;;;;18.20;14.67;;;2.50;55.00;;;;;;5053806;28;20213;-53
2022/03/08 01:00:39;;;;;;;16.57;13.33;;;2.50;55.70;;;;;;5053786;28;20178;-53
2022/03/08 01:03:05;;;;;;;18.03;14.83;;;2.50;55.50;;;;;;5053217;28;20171;-54
2022/03/08 01:05:32;;;;;;;15.90;13.13;;;2.60;55.30;;;;;;5053094;28;20421;-55
2022/03/08 01:07:59;;;;;;;16.57;13.90;;;2.50;55.60;;;;;;5053229;28;20171;-56
2022/03/08 01:10:25;;;;;;;17.33;12.30;;;2.50;55.80;;;;;;5053622;28;20420;-53
2022/03/08 01:12:52;;;;;;;15.07;12.50;;;2.60;54.90;;;;;;5053413;28;20421;-52
2022/03/08 01:15:19;;;;;;;16.07;13.30;;;2.60;54.50;;;;;;5052955;28;20496;-51
2022/03/08 01:17:45;;;;;;;15.57;12.80;;;2.70;54.70;;;;;;5053023;28;20414;-53
2022/03/08 01:20:12;;;;;;;15.70;13.63;;;2.70;56.00;;;;;;5053316;28;20406;-54
2022/03/08 01:22:38;;;;;;;15.20;13.13;;;2.70;56.60;;;;;;5053167;28;20410;-53
2022/03/08 01:25:05;;;;;;;16.57;13.60;;;2.70;56.50;;;;;;5053230;28;20518;-56
2022/03/08 01:27:31;;;;;;;15.97;13.43;;;2.70;55.00;;;;;;5052835;28;20439;-53
2022/03/08 01:29:57;;;;;;;17.07;13.47;;;2.80;55.20;;;;;;5053180;28;20453;-51
2022/03/08 01:32:22;;;;;;;15.60;12.77;;;2.80;55.30;;;;;;5052958;28;20186;-54
2022/03/08 01:34:48;;;;;;;16.33;13.33;;;2.80;55.40;;;;;;5053064;28;20210;-56
2022/03/08 01:37:14;;;;;;;15.03;12.87;;;2.90;54.40;;;;;;5051946;28;20183;-53
2022/03/08 01:39:40;;;;;;;16.27;13.07;;;2.90;54.50;;;;;;5052414;28;20203;-54
2022/03/08 01:42:10;;;;;;;18.27;13.50;;;2.90;54.80;;;;;;5052902;28;20422;-52
2022/03/08 01:44:38;;;;;;;15.33;12.43;;;2.90;55.90;;;;;;5052769;28;20500;-53
2022/03/08 01:47:04;;;;;;;15.60;12.97;;;2.70;56.40;;;;;;5052332;28;20840;-52
2022/03/08 01:49:30;;;;;;;15.83;13.53;;;2.60;56.10;;;;;;5051959;28;20418;-56
2022/03/08 01:51:55;;;;;;;16.17;13.27;;;2.60;56.10;;;;;;5052778;28;20752;-54
2022/03/08 01:54:21;;;;;;;17.80;13.40;;;2.50;57.20;;;;;;5052631;28;20207;-55
2022/03/08 01:56:47;;;;;;;17.93;13.33;;;2.50;57.80;;;;;;5052303;28;20675;-55
2022/03/08 01:59:12;;;;;;;15.70;12.67;;;2.50;57.40;;;;;;5052512;28;20215;-56
2022/03/08 02:01:38;;;;;;;16.03;13.13;;;2.50;57.00;;;;;;5052161;28;20595;-54
2022/03/08 02:04:03;;;;;;;15.87;13.30;;;2.50;56.90;;;;;;5051592;28;20652;-52
2022/03/08 02:06:29;;;;;;;16.60;13.50;;;2.60;57.30;;;;;;5051766;28;20651;-53
2022/03/08 02:08:55;;;;;;;15.93;13.90;;;2.60;57.90;;;;;;5052222;28;20174;-55
2022/03/08 02:11:22;;;;;;;16.33;13.63;;;2.60;57.90;;;;;;5052453;28;20175;-54
2022/03/08 02:13:47;;;;;;;16.53;13.37;;;2.60;58.20;;;;;;5052348;28;20178;-57
2022/03/08 02:16:14;;;;;;;15.63;12.63;;;2.70;57.70;;;;;;5051780;28;20457;-55
2022/03/08 02:18:39;;;;;;;15.93;13.27;;;2.60;58.10;;;;;;5051946;28;20207;-54
2022/03/08 02:21:06;;;;;;;15.63;13.10;;;2.50;58.80;;;;;;5052276;28;20393;-56
2022/03/08 02:23:32;;;;;;;16.60;13.10;;;2.50;58.40;;;;;;5052072;28;20246;-54
2022/03/08 02:25:58;;;;;;;15.17;12.63;;;2.40;58.20;;;;;;5051679;28;20529;-53
2022/03/08 02:28:23;;;;;;;15.67;12.70;;;2.50;57.80;;;;;;5052239;28;20182;-53
2022/03/08 02:30:49;;;;;;;16.10;13.37;;;2.40;58.00;;;;;;5052046;28;20179;-55
2022/03/08 02:33:14;;;;;;;18.90;13.57;;;2.40;58.10;;;;;;5051718;28;20203;-57
2022/03/08 02:35:40;;;;;;;17.60;13.63;;;2.50;58.40;;;;;;5051713;28;20202;-52
2022/03/08 02:38:06;;;;;;;16.10;13.67;;;2.50;58.20;;;;;;5051849;28;20199;-56
2022/03/08 02:40:36;;;;;;;15.43;13.07;;;2.60;58.30;;;;;;5051911;28;20258;-56
2022/03/08 02:43:02;;;;;;;14.20;12.17;;;2.20;57.10;;;;;;5051792;28;20398;-53
2022/03/08 02:45:27;;;;;;;16.70;12.97;;;2.70;57.40;;;;;;5051667;28;20433;-55
2022/03/08 02:47:53;;;;;;;14.77;12.63;;;2.60;56.80;;;;;;5051382;28;20906;-51
2022/03/08 02:50:20;;;;;;;14.63;12.57;;;2.70;57.10;;;;;;5051709;28;20860;-52
2022/03/08 02:52:51;;;;;;;14.73;13.07;;;2.70;56.40;;;;;;5051807;28;20679;-53
2022/03/08 02:55:17;;;;;;;18.23;12.77;;;2.70;57.00;;;;;;5051571;28;20430;-55
2022/03/08 02:57:43;;;;;;;16.87;13.80;;;2.80;57.50;;;;;;5051155;28;20410;-51
2022/03/08 03:00:13;;;;;;;15.13;12.30;;;2.80;57.40;;;;;;5052718;28;20420;-57
2022/03/08 03:02:39;;;;;;;15.10;12.67;;;2.80;57.40;;;;;;5058085;28;20178;-56
2022/03/08 03:05:06;;;;;;;16.07;12.97;;;2.80;57.40;;;;;;5058067;28;20418;-53
2022/03/08 03:07:32;;;;;;;14.87;11.97;;;2.90;57.50;;;;;;5057625;28;20532;-54
2022/03/08 03:09:58;;;;;;;14.83;11.80;;;2.90;57.10;;;;;;5057991;28;20409;-50
2022/03/08 03:12:24;;;;;;;15.93;12.80;;;2.70;57.00;;;;;;5058128;28;20821;-53
2022/03/08 03:14:49;;;;;;;14.07;11.67;;;2.60;57.30;;;;;;5057823;28;20699;-55
2022/03/08 03:17:17;;;;;;;15.67;12.47;;;2.50;57.60;;;;;;5057448;28;20171;-56
2022/03/08 03:19:43;;;;;;;16.47;12.37;;;2.60;58.10;;;;;;5057867;28;20201;-56
2022/03/08 03:22:08;;;;;;;17.13;13.57;;;2.60;58.50;;;;;;5056784;28;20421;-54
2022/03/08 03:24:34;;;;;;;14.90;12.27;;;2.60;57.50;;;;;;5057966;28;20218;-55
2022/03/08 03:26:59;;;;;;;15.23;11.97;;;2.60;57.70;;;;;;5057406;28;20260;-56
2022/03/08 03:29:25;;;;;;;15.63;12.60;;;2.60;57.80;;;;;;5057746;28;20174;-53
2022/03/08 03:31:50;;;;;;;14.93;12.00;;;2.70;58.20;;;;;;5058111;28;20179;-54
2022/03/08 03:34:16;;;;;;;14.53;11.57;;;2.70;58.60;;;;;;5058542;28;20204;-56
2022/03/08 03:36:41;;;;;;;14.37;11.73;;;2.70;58.50;;;;;;5056552;28;20857;-54
2022/03/08 03:39:07;;;;;;;14.00;12.07;;;2.80;58.80;;;;;;5058261;28;20198;-56
2022/03/08 03:41:33;;;;;;;14.30;12.10;;;2.80;58.70;;;;;;5058067;28;20171;-54
2022/03/08 03:43:58;;;;;;;13.40;10.87;;;2.80;58.80;;;;;;5058059;28;20183;-53
2022/03/08 03:46:24;;;;;;;13.70;10.90;;;2.70;58.70;;;;;;5057499;28;20194;-52
2022/03/08 03:48:50;;;;;;;13.03;10.13;;;2.70;59.00;;;;;;5057833;28;20171;-50
2022/03/08 03:51:16;;;;;;;11.83;10.60;;;2.70;58.80;;;;;;5057998;28;20175;-54
2022/03/08 03:53:43;;;;;;;12.50;11.20;;;2.70;58.90;;;;;;5058028;28;20186;-56
2022/03/08 03:56:08;;;;;;;14.73;12.83;;;2.70;59.40;;;;;;5057588;28;20463;-54
2022/03/08 03:58:34;;;;;;;12.23;10.83;;;2.60;59.80;;;;;;5057595;28;20876;-53
2022/03/08 04:00:59;;;;;;;16.13;12.73;;;2.50;59.80;;;;;;5057853;28;20250;-53
2022/03/08 04:03:25;;;;;;;15.83;12.00;;;2.20;59.70;;;;;;5057772;28;20167;-55
2022/03/08 04:05:50;;;;;;;13.80;10.70;;;2.00;60.50;;;;;;5057487;28;20195;-53
2022/03/08 04:08:20;;;;;;;11.83;10.50;;;2.00;61.10;;;;;;5057681;28;20179;-54
2022/03/08 04:10:47;;;;;;;12.13;9.93;;;2.00;61.50;;;;;;5057829;28;20171;-54
2022/03/08 04:13:13;;;;;;;11.97;10.60;;;2.00;61.60;;;;;;5054265;28;20489;-54
2022/03/08 04:15:39;;;;;;;12.73;10.50;;;2.00;61.10;;;;;;5054047;28;20870;-57
2022/03/08 04:18:04;;;;;;;14.70;10.40;;;2.00;61.10;;;;;;5053874;28;20555;-51
2022/03/08 04:20:30;;;;;;;14.67;10.60;;;2.00;61.00;;;;;;5054466;28;20164;-53
2022/03/08 04:22:55;;;;;;;11.33;9.47;;;2.00;61.10;;;;;;5054428;28;20574;-57
2022/03/08 04:25:21;;;;;;;11.87;9.83;;;2.00;61.00;;;;;;5054186;28;20198;-55
2022/03/08 04:27:47;;;;;;;12.20;9.90;;;1.90;61.90;;;;;;5053892;28;20167;-55
2022/03/08 04:30:13;;;;;;;13.67;11.33;;;1.90;62.20;;;;;;5054311;28;20786;-57
2022/03/08 04:32:39;;;;;;;12.60;10.40;;;1.90;62.20;;;;;;5054142;28;20225;-53
2022/03/08 04:35:05;;;;;;;15.17;11.20;;;1.80;62.40;;;;;;5054098;28;20187;-53
2022/03/08 04:37:31;;;;;;;12.97;10.80;;;1.80;62.80;;;;;;5053909;28;20416;-53
2022/03/08 04:39:56;;;;;;;13.23;11.47;;;1.80;63.10;;;;;;5055349;28;20461;-55
2022/03/08 04:42:22;;;;;;;12.57;10.53;;;1.80;63.40;;;;;;5052612;28;20171;-53
2022/03/08 04:44:47;;;;;;;13.40;10.80;;;1.80;63.00;;;;;;5053987;28;20266;-56
2022/03/08 04:47:13;;;;;;;12.27;10.33;;;1.70;62.90;;;;;;5052483;28;20171;-55
2022/03/08 04:49:38;;;;;;;11.77;10.37;;;1.50;63.90;;;;;;5053909;28;20190;-55
2022/03/08 04:52:04;;;;;;;12.57;10.87;;;1.40;65.00;;;;;;5053939;28;20218;-52
2022/03/08 04:54:30;;;;;;;12.37;10.33;;;1.50;65.00;;;;;;5052588;28;20191;-54
2022/03/08 04:56:55;;;;;;;13.40;10.90;;;1.50;65.00;;;;;;5053537;28;20211;-55
2022/03/08 04:59:21;;;;;;;13.67;10.20;;;1.40;65.10;;;;;;5053558;28;20676;-55
2022/03/08 05:01:46;;;;;;;17.97;13.37;;;1.50;65.10;;;;;;5053679;28;20171;-53
2022/03/08 05:04:12;;;;;;;14.30;10.87;;;1.40;65.40;;;;;;5053731;28;20167;-54
2022/03/08 05:06:37;;;;;;;15.60;11.33;;;1.40;65.40;;;;;;5053290;28;20191;-53
2022/03/08 05:09:03;;;;;;;15.20;12.30;;;1.30;65.30;;;;;;5053539;28;20232;-55
2022/03/08 05:11:29;;;;;;;14.30;11.67;;;1.30;65.30;;;;;;5053534;28;20179;-53
2022/03/08 05:13:54;;;;;;;14.17;11.43;;;1.30;65.40;;;;;;5053468;28;20254;-57
2022/03/08 05:16:20;;;;;;;15.27;11.67;;;1.30;65.70;;;;;;5052968;28;20699;-56
2022/03/08 05:18:45;;;;;;;14.60;12.23;;;1.30;65.70;;;;;;5052259;28;20211;-55
2022/03/08 05:21:11;;;;;;;14.20;12.23;;;1.30;66.20;;;;;;5053421;28;20179;-55
2022/03/08 05:23:36;;;;;;;16.70;13.80;;;1.30;66.70;;;;;;5052399;28;20179;-53
2022/03/08 05:26:04;;;;;;;19.13;14.43;;;1.30;67.40;;;;;;5052725;28;20556;-55
2022/03/08 05:28:31;;;;;;;19.60;14.90;;;1.30;67.90;;;;;;5053099;28;20218;-57
2022/03/08 05:30:56;;;;;;;20.43;15.47;;;1.30;68.10;;;;;;5053134;28;20437;-56
2022/03/08 05:33:22;;;;;;;16.07;13.07;;;1.30;68.40;;;;;;5052998;28;20409;-56
2022/03/08 05:35:47;;;;;;;17.63;12.90;;;1.20;68.60;;;;;;5052811;28;20198;-53
2022/03/08 05:38:13;;;;;;;16.43;13.07;;;1.30;68.80;;;;;;5052946;28;20260;-53
2022/03/08 05:40:39;;;;;;;14.53;12.00;;;1.20;68.90;;;;;;5052951;28;20533;-56
2022/03/08 05:43:05;;;;;;;15.60;12.70;;;1.20;69.10;;;;;;5052819;28;20178;-56
2022/03/08 05:45:31;;;;;;;16.80;13.13;;;1.20;69.40;;;;;;5052695;28;20481;-57
2022/03/08 05:47:57;;;;;;;17.20;12.33;;;1.20;69.80;;;;;;5052632;28;20448;-55
2022/03/08 05:50:22;;;;;;;16.03;12.43;;;1.20;70.10;;;;;;5052448;28;20171;-53
2022/03/08 05:52:48;;;;;;;14.43;12.10;;;1.20;70.50;;;;;;5052853;28;20414;-55
2022/03/08 05:55:13;;;;;;;13.97;11.87;;;1.20;70.90;;;;;;5052578;28;20688;-54
2022/03/08 05:57:39;;;;;;;17.40;11.87;;;1.20;70.90;;;;;;5052272;28;20179;-56
2022/03/08 06:00:06;;;;;;;14.33;12.47;;;1.30;71.20;;;;;;5052619;28;20279;-56
2022/03/08 06:02:31;;;;;;;15.93;12.93;;;1.30;71.30;;;;;;5052505;28;20257;-52
2022/03/08 06:04:57;;;;;;;14.40;11.57;;;1.30;71.30;;;;;;5052588;28;20539;-52
2022/03/08 06:07:23;;;;;;;17.27;13.60;;;1.30;71.00;;;;;;5052098;28;20233;-52
2022/03/08 06:09:48;;;;;;;16.27;13.83;;;1.30;70.80;;;;;;5052394;28;20179;-55
2022/03/08 06:12:14;;;;;;;17.10;13.20;;;1.30;71.00;;;;;;5052267;28;20206;-55
2022/03/08 06:14:40;;;;;;;19.27;14.03;;;1.40;70.90;;;;;;5052065;28;20221;-54
2022/03/08 06:17:06;;;;;;;19.90;15.10;;;1.40;70.90;;;;;;5051986;28;20409;-51
2022/03/08 06:19:33;;;;;;;18.27;14.23;;;1.40;71.10;;;;;;5052214;28;20221;-54
2022/03/08 06:21:58;;;;;;;22.80;13.93;;;1.40;71.10;;;;;;5052300;28;20932;-55
2022/03/08 06:24:24;;;;;;;15.97;13.40;;;1.50;71.20;;;;;;5052193;28;20405;-55
2022/03/08 06:26:49;;;;;;;16.70;13.00;;;1.50;70.60;;;;;;5052164;28;20178;-51
2022/03/08 06:29:15;;;;;;;16.83;13.60;;;1.60;70.40;;;;;;5052460;28;20182;-55
2022/03/08 06:31:41;;;;;;;18.80;14.07;;;1.60;70.70;;;;;;5052477;28;20171;-53
2022/03/08 06:34:06;;;;;;;17.80;14.13;;;1.70;70.50;;;;;;5051963;28;20190;-53
2022/03/08 06:36:34;;;;;;;17.00;13.57;;;1.70;70.50;;;;;;5050929;28;20636;-55
2022/03/08 06:39:00;;;;;;;16.87;13.53;;;1.80;70.50;;;;;;5051528;28;20194;-52
2022/03/08 06:41:26;;;;;;;18.27;13.60;;;1.80;69.50;;;;;;5051569;28;20504;-56
2022/03/08 06:43:51;;;;;;;19.23;15.60;;;2.00;69.40;;;;;;5051638;28;20487;-53
2022/03/08 06:46:17;;;;;;;19.43;14.80;;;2.00;69.70;;;;;;5051466;28;20885;-56
2022/03/08 06:48:43;;;;;;;16.73;13.77;;;2.10;69.50;;;;;;5051522;28;20543;-55
2022/03/08 06:51:08;;;;;;;16.97;14.03;;;2.20;69.00;;;;;;5051692;28;20203;-54
2022/03/08 06:53:34;;;;;;;17.57;14.13;;;2.30;67.80;;;;;;5051735;28;20305;-53
2022/03/08 06:55:59;;;;;;;18.37;13.90;;;2.40;67.40;;;;;;5051663;28;20195;-50
2022/03/08 06:58:26;;;;;;;16.63;13.27;;;2.50;67.40;;;;;;5051664;28;20207;-56
2022/03/08 07:00:52;;;;;;;17.13;13.43;;;2.60;66.90;;;;;;5051740;28;20555;-52
2022/03/08 07:03:18;;;;;;;17.57;14.60;;;2.70;66.60;;;;;;5051614;28;20417;-50
2022/03/08 07:05:43;;;;;;;17.90;13.77;;;2.80;66.60;;;;;;5051260;28;20187;-56
2022/03/08 07:08:09;;;;;;;16.30;13.80;;;2.80;66.40;;;;;;5051528;28;20199;-54
2022/03/08 07:10:35;;;;;;;17.60;14.23;;;2.90;65.70;;;;;;5051452;28;20670;-53
2022/03/08 07:13:00;;;;;;;19.73;14.03;;;3.00;64.50;;;;;;5050304;28;20225;-56
2022/03/08 07:15:26;;;;;;;17.77;13.90;;;3.00;64.10;;;;;;5051285;28;20209;-54
2022/03/08 07:17:51;;;;;;;15.37;13.13;;;3.20;64.80;;;;;;5050564;28;20584;-53
2022/03/08 07:20:17;;;;;;;15.73;13.80;;;3.30;64.60;;;;;;5051417;28;20194;-50
2022/03/08 07:22:43;;;;;;;16.03;13.37;;;3.40;64.10;;;;;;5050970;28;20186;-53
2022/03/08 07:25:10;;;;;;;14.67;12.77;;;3.40;63.80;;;;;;5050792;28;20194;-56
2022/03/08 07:27:36;;;;;;;16.83;14.60;;;3.50;63.20;;;;;;5050542;28;20182;-54
2022/03/08 07:30:03;;;;;;;17.70;13.57;;;3.50;62.10;;;;;;5051464;28;20167;-56
2022/03/08 07:32:29;;;;;;;15.40;13.73;;;3.60;62.40;;;;;;5051189;28;20179;-58
2022/03/08 07:34:54;;;;;;;15.53;13.37;;;3.80;62.80;;;;;;5045240;28;20213;-55
2022/03/08 07:37:20;;;;;;;15.77;13.43;;;3.90;61.70;;;;;;5050858;28;20194;-55
2022/03/08 07:39:45;;;;;;;16.40;14.37;;;4.10;61.10;;;;;;5050756;28;20191;-57
2022/03/08 07:42:11;;;;;;;16.17;13.30;;;4.10;61.10;;;;;;5051499;28;20163;-56
2022/03/08 07:44:38;;;;;;;16.83;14.40;;;4.30;61.00;;;;;;5051052;28;20178;-52
2022/03/08 07:47:04;;;;;;;17.83;14.33;;;4.40;60.30;;;;;;5051351;28;20169;-57
2022/03/08 07:49:29;;;;;;;15.80;13.90;;;4.40;59.90;;;;;;5055134;28;20179;-56
2022/03/08 07:51:55;;;;;;;18.00;13.37;;;4.40;61.20;;;;;;5055071;28;20217;-53
2022/03/08 07:54:21;;;;;;;16.60;14.33;;;4.40;60.30;;;;;;5054946;28;20574;-51
2022/03/08 07:56:47;;;;;;;14.67;12.23;;;4.50;61.80;;;;;;5053393;28;20183;-54
2022/03/08 07:59:13;;;;;;;15.13;12.23;;;4.60;61.10;;;;;;5054865;28;20207;-54
2022/03/08 08:01:38;;;;;;;14.90;11.27;;;4.70;60.90;;;;;;5054579;28;20334;-52
2022/03/08 08:04:04;;;;;;;12.97;11.23;;;4.80;61.80;;;;;;5054765;28;20171;-55
2022/03/08 08:06:29;;;;;;;12.27;10.97;;;4.80;60.30;;;;;;5054404;28;20198;-53
2022/03/08 08:08:55;;;;;;;12.80;11.40;;;4.70;60.70;;;;;;5054720;28;20543;-56
2022/03/08 08:11:20;;;;;;;12.70;11.37;;;4.80;61.40;;;;;;5054763;28;20631;-54
2022/03/08 08:13:48;;;;;;;12.27;10.47;;;4.90;61.30;;;;;;5054828;28;20171;-53
2022/03/08 08:16:14;;;;;;;12.37;10.10;;;5.00;60.90;;;;;;5054214;28;20199;-57
2022/03/08 08:18:40;;;;;;;12.17;10.33;;;4.90;61.10;;;;;;5054327;28;20229;-51
2022/03/08 08:21:05;;;;;;;10.40;9.30;;;5.10;63.00;;;;;;5053235;28;20275;-54
2022/03/08 08:23:31;;;;;;;10.17;9.03;;;5.30;63.70;;;;;;5054462;28;20167;-55
2022/03/08 08:25:57;;;;;;;11.03;9.77;;;5.50;63.00;;;;;;5054074;28;20219;-54
2022/03/08 08:28:23;;;;;;;11.73;10.33;;;5.60;62.40;;;;;;5054345;28;20260;-53
2022/03/08 08:30:48;;;;;;;11.20;9.67;;;5.70;62.20;;;;;;5054383;28;20336;-53
2022/03/08 08:33:14;;;;;;;10.83;9.73;;;5.70;62.30;;;;;;5054238;28;20688;-54
2022/03/08 08:35:40;;;;;;;11.10;9.93;;;5.80;62.80;;;;;;5053849;28;20313;-54
2022/03/08 08:38:05;;;;;;;11.37;10.10;;;5.80;62.20;;;;;;5053989;28;20172;-55
2022/03/08 08:40:34;;;;;;;12.17;10.53;;;5.90;61.70;;;;;;5054369;28;20549;-56
2022/03/08 08:43:00;;;;;;;11.77;9.43;;;6.10;61.70;;;;;;5054125;28;20170;-55
2022/03/08 08:45:26;;;;;;;11.00;9.77;;;6.20;61.10;;;;;;5053928;28;20191;-51
2022/03/08 08:47:51;;;;;;;11.83;9.40;;;6.20;61.80;;;;;;5053695;28;20579;-54
2022/03/08 08:50:17;;;;;;;11.27;10.07;;;6.30;61.20;;;;;;5053965;28;20266;-54
2022/03/08 08:52:43;;;;;;;10.33;8.87;;;6.50;60.50;;;;;;5053906;28;20867;-55
2022/03/08 08:55:09;;;;;;;11.07;8.80;;;6.70;60.20;;;;;;5053853;28;20187;-56
2022/03/08 08:57:34;;;;;;;10.43;9.17;;;7.20;59.50;;;;;;5053425;28;20583;-53
2022/03/08 09:00:00;;;;;;;9.97;8.97;;;7.60;59.00;;;;;;5053559;28;20195;-53
2022/03/08 09:02:26;;;;;;;10.03;8.97;;;8.00;58.40;;;;;;5053902;28;20221;-53
2022/03/08 09:04:51;;;;;;;10.90;8.67;;;8.40;57.60;;;;;;5053629;28;20541;-57
2022/03/08 09:07:17;;;;;;;11.53;9.40;;;8.60;55.70;;;;;;5053299;28;20528;-54
2022/03/08 09:09:42;;;;;;;10.27;9.03;;;8.70;55.20;;;;;;5053644;28;20175;-54
2022/03/08 09:12:08;;;;;;;9.57;8.53;;;9.10;55.80;;;;;;5053786;28;20187;-55
2022/03/08 09:14:33;;;;;;;9.23;8.27;;;9.60;54.20;;;;;;5053401;28;20191;-56
2022/03/08 09:16:59;;;;;;;7.30;6.23;;;10.40;53.10;;;;;;5053038;28;20691;-57
2022/03/08 09:19:24;;;;;;;7.67;6.70;;;11.40;50.80;;;;;;5053381;28;20194;-55
2022/03/08 09:21:50;;;;;;;8.53;6.93;;;12.20;47.60;;;;;;5053290;28;20532;-58
2022/03/08 09:24:16;;;;;;;7.70;6.90;;;12.50;44.70;;;;;;5053374;28;20225;-56
2022/03/08 09:26:41;;;;;;;8.27;6.90;;;12.80;44.00;;;;;;5052964;28;20187;-54
2022/03/08 09:29:07;;;;;;;8.20;7.37;;;13.10;44.20;;;;;;5053256;28;20170;-55
2022/03/08 09:31:32;;;;;;;7.27;6.57;;;14.00;43.10;;;;;;5053231;28;20178;-57
2022/03/08 09:33:58;;;;;;;7.97;7.17;;;15.20;41.10;;;;;;5053209;28;20270;-57
2022/03/08 09:36:23;;;;;;;8.07;6.90;;;16.80;39.10;;;;;;5051467;28;20566;-52
2022/03/08 09:38:49;;;;;;;7.60;6.90;;;17.80;37.10;;;;;;5053413;28;20202;-58
2022/03/08 09:41:15;;;;;;;7.83;7.00;;;18.60;35.50;;;;;;5053261;28;20171;-55
2022/03/08 09:43:40;;;;;;;8.30;6.38;;;19.70;34.30;;;;;;5053241;28;20577;-53
2022/03/08 09:46:07;;;;;;;7.18;6.50;;;21.40;32.30;;;;;;5052564;28;20191;-55
2022/03/08 09:48:33;;;;;;;8.05;7.15;;;22.80;30.70;;;;;;5052803;28;20172;-56
2022/03/08 09:51:00;;;;;;;8.05;6.70;;;22.40;30.80;;;;;;5052730;28;20175;-53
2022/03/08 09:53:28;;;;;;;7.90;7.13;;;22.20;29.70;;;;;;5052808;28;20172;-52
2022/03/08 09:56:00;;;;;;;6.55;5.82;;;22.50;29.60;;;;;;5052644;28;20207;-58
2022/03/08 09:58:26;;;;;;;6.60;5.70;;;23.20;29.20;;;;;;5052669;28;20195;-58
2022/03/08 10:00:53;;;;;;;6.93;6.22;;;23.80;27.90;;;;;;5052698;28;20163;-57
2022/03/08 10:03:31;;;;;;;7.07;5.90;;;25.50;27.30;;;;;;5052510;28;20217;-56
2022/03/08 10:05:57;;;;;;;6.47;5.43;;;26.90;26.60;;;;;;5052170;28;20198;-57
2022/03/08 10:08:23;;;;;;;6.40;5.55;;;28.10;25.60;;;;;;5052507;28;20163;-58
2022/03/08 10:10:58;;;;;;;6.80;6.20;;;29.60;24.50;;;;;;5051949;28;20740;-57
2022/03/08 10:13:26;;;;;;;5.53;5.03;;;30.60;23.40;;;;;;5052530;28;20703;-54
2022/03/08 10:16:13;;;;;;;5.82;4.97;;;31.30;22.90;;;;;;5051860;28;20207;-54
2022/03/08 10:18:42;;;;;;;5.10;4.60;;;31.30;22.20;;;;;;5052080;28;20192;-57
2022/03/08 10:21:39;;;;;;;4.68;3.70;;;31.00;22.10;;;;;;5052368;28;20243;-56
2022/03/08 10:24:23;;;;;;;4.93;4.43;;;30.80;21.50;;;;;;5052288;28;20178;-58
2022/03/08 10:27:01;;;;;;;5.30;4.80;;;31.80;21.60;;;;;;5051901;28;20171;-57
2022/03/08 10:29:28;;;;;;;5.15;4.65;;;33.00;20.90;;;;;;5052199;28;20236;-58
2022/03/08 10:32:17;;;;;;;5.07;4.55;;;33.80;20.20;;;;;;5052062;28;20659;-57
2022/03/08 10:34:45;;;;;;;5.20;4.70;;;34.70;19.30;;;;;;5051875;28;20191;-57
2022/03/08 10:37:17;;;;;;;5.45;4.22;;;34.40;19.70;;;;;;5051734;28;20178;-55
2022/03/08 10:40:01;;;;;;;5.20;4.18;;;34.40;19.20;;;;;;5053136;28;20199;-58
2022/03/08 10:42:34;;;;;;;4.03;3.22;;;34.80;18.50;;;;;;5051936;28;20648;-60
2022/03/08 10:45:08;;;;;;;3.83;3.15;;;35.60;18.20;;;;;;5051822;28;20199;-58
2022/03/08 10:47:53;;;;;;;5.30;3.53;;;36.90;17.10;;;;;;5050254;28;20171;-59
2022/03/08 10:50:37;;;;;;;3.40;3.10;;;35.40;18.10;;;;;;5052060;28;20175;-54
2022/03/08 10:53:06;;;;;;;3.05;2.85;;;35.20;17.10;;;;;;5051962;28;20175;-58
2022/03/08 10:55:34;;;;;;;3.10;2.72;;;35.60;17.80;;;;;;5051321;28;20187;-55
2022/03/08 10:58:04;;;;;;;3.42;3.13;;;36.50;16.90;;;;;;5051531;28;20182;-59
2022/03/08 11:00:38;;;;;;;3.30;3.00;;;37.90;16.30;;;;;;5051803;28;20179;-58
2022/03/08 11:03:25;;;;;;;3.53;3.08;;;38.80;16.20;;;;;;5051746;28;20167;-58
2022/03/08 11:05:56;;;;;;;3.38;2.72;;;39.00;15.90;;;;;;5051398;28;20236;-59
2022/03/08 11:08:27;;;;;;;2.95;2.70;;;39.20;15.90;;;;;;5051679;28;20509;-53
2022/03/08 11:10:54;;;;;;;5.13;3.20;;;40.40;15.20;;;;;;5051758;28;20170;-58
2022/03/08 11:13:20;;;;;;;3.80;3.40;;;39.80;14.50;;;;;;5051682;28;20170;-56
2022/03/08 11:15:46;;;;;;;3.20;2.90;;;37.60;14.90;;;;;;5051270;28;20231;-54
2022/03/08 11:18:14;;;;;;;3.20;2.90;;;35.90;16.10;;;;;;5051323;28;20567;-59
2022/03/08 11:20:42;;;;;;;5.20;3.25;;;36.50;15.80;;;;;;5051492;28;20650;-59
2022/03/08 11:23:08;;;;;;;3.30;3.05;;;37.70;15.10;;;;;;5055575;28;20167;-56
2022/03/08 11:25:39;;;;;;;3.55;3.00;;;38.10;14.90;;;;;;5055202;28;20226;-55
2022/03/08 11:28:06;;;;;;;2.70;2.50;;;37.50;15.30;;;;;;5055534;28;20220;-54
2022/03/08 11:30:41;;;;;;;2.70;2.50;;;35.40;15.80;;;;;;5055556;28;20830;-55
2022/03/08 11:33:11;;;;;;;2.88;2.63;;;35.10;15.70;;;;;;5055278;28;20189;-57
2022/03/08 11:35:47;;;;;;;3.40;2.80;;;35.90;16.30;;;;;;5055056;28;20668;-58
2022/03/08 11:38:14;;;;;;;2.90;2.70;;;37.00;15.20;;;;;;5055260;28;20652;-58
2022/03/08 11:40:53;;;;;;;2.55;2.35;;;37.80;14.70;;;;;;5055299;28;20198;-59
2022/03/08 11:43:20;;;;;;;3.15;2.85;;;39.10;14.80;;;;;;5055188;28;20167;-59
2022/03/08 11:45:50;;;;;;;3.13;2.80;;;38.20;14.40;;;;;;5054816;28;20252;-56
2022/03/08 11:48:21;;;;;;;3.40;3.08;;;36.00;14.90;;;;;;5055008;28;20167;-52
2022/03/08 11:50:48;;;;;;;3.55;3.25;;;34.30;15.70;;;;;;5055147;28;20176;-59
2022/03/08 11:53:17;;;;;;;3.33;3.00;;;32.30;16.40;;;;;;5055102;28;20171;-59
2022/03/08 11:55:42;;;;;;;3.25;2.95;;;32.60;16.90;;;;;;5050158;28;20760;-57
2022/03/08 11:58:13;;;;;;;3.10;2.80;;;32.30;16.90;;;;;;5054609;28;20221;-54
2022/03/08 12:00:44;;;;;;;2.95;2.72;;;32.40;17.50;;;;;;5055515;28;20679;-60
2022/03/08 12:03:11;;;;;;;3.00;2.80;;;32.80;16.90;;;;;;5056789;28;20175;-61
2022/03/08 12:05:46;;;;;;;3.65;2.92;;;34.30;21.20;;;;;;5056204;28;20199;-57
2022/03/08 12:08:29;;;;;;;3.25;2.95;;;34.30;16.80;;;;;;5058388;28;20255;-57
2022/03/08 12:11:27;;;;;;;3.10;2.80;;;34.00;15.60;;;;;;5054543;28;20190;-57
2022/03/08 12:14:06;;;;;;;3.30;3.00;;;33.20;15.80;;;;;;5053897;28;20408;-56
2022/03/08 12:16:32;;;;;;;2.90;2.70;;;32.60;16.20;;;;;;5054191;28;20619;-55
2022/03/08 12:19:00;;;;;;;2.30;2.10;;;32.30;16.40;;;;;;5054280;28;20290;-58
2022/03/08 12:21:31;;;;;;;2.90;2.45;;;32.70;15.70;;;;;;5068891;28;20239;-57
2022/03/08 12:24:01;;;;;;;3.13;2.80;;;33.90;16.40;;;;;;5062132;28;20193;-57
2022/03/08 12:26:40;;;;;;;2.88;2.67;;;34.90;15.50;;;;;;5072251;28;20226;-57
2022/03/08 12:29:25;;;;;;;2.47;2.28;;;33.80;15.40;;;;;;5062785;28;20603;-60
2022/03/08 12:31:57;;;;;;;3.05;2.70;;;32.60;16.40;;;;;;5034918;28;20176;-56
2022/03/08 12:34:35;;;;;;;3.10;2.80;;;31.80;16.60;;;;;;5056271;28;20179;-58
2022/03/08 12:37:03;;;;;;;3.05;2.83;;;31.60;17.20;;;;;;5061993;28;20694;-59
2022/03/08 12:39:48;;;;;;;3.72;3.42;;;31.50;17.10;;;;;;5073560;28;20547;-58
2022/03/08 12:42:19;;;;;;;3.40;3.10;;;30.50;17.30;;;;;;5074429;28;20535;-58